Portada
METAR-TAF:

METAR-TAF

Aeropuertos :

Stávropol, Rusia

latitud: 45-20N, longitud: 042-00E, altitud: 453 m

Observación

El informe se hizo hace 25 minutos, a las 05:00 UTC
Viento 4 kt del sureste
Temperatura 27°C
Humedad 26%
Presión 1009 hPa
Visibilidad 10 km o más
sin nubes por debajo de 1500 m y sin presencia de cumulonimbus.

METAR: URMT 060500Z 14002MPS CAVOK 27/06 Q1009 R07/010070 NOSIG RMK QFE717

Hora: 09:25 (05:25 UTC)

Pronóstico

El informe se hizo hace 3 horas y 25 minutos, a las 02:00 UTC
Pronóstico válido del 06 a las 03 UTC al 06 a las 12 UTC
Viento 6 kt del este-sureste con ráfagas de 16 kt
Visibilidad 10 km o más
sin nubes por debajo de 1500 m y sin presencia de cumulonimbus.

TAF: URMT 060200Z 0603/0612 11003G08MPS CAVOK

Observaciones y pronósticos meteorológicos de más de 4000 aeropuertos (mensajes METAR y TAF).

Los puntos amarillos y rojos representan las estaciones disponibles.

Ponga el ratón en el punto deseado para ver el nombre de la estación.

Haga clic para ver las observaciones y los pronósticos meteorológicos.

Para cambiar el mapa : haga clic en los botones verdes con una cruz de color negro para hacer un zoom, en el botón verde con un guión para alejar o en las flechas verdes para mapas adyacentes.


METAR-TAF: